Time;durP1;ratioP1;P1;durP2;ratioP2;P2;SDS_P1;SDS_P2;PMS_P1;PMS_P2;Temp;Humidity;BMP_temperature;BMP_pressure;BME280_temperature;BME280_humidity;BME280_pressure;Samples;Min_cycle;Max_cycle;Signal;HPM_P1;HPM_P2
2022/07/20 00:00:09;;;;;;;9.50;5.90;;;;;;;16.42;70.95;98383.45;106291;1274;25412;-78
2022/07/20 00:03:04;;;;;;;10.50;6.40;;;;;;;16.37;70.96;98379.69;105943;1275;24217;-76
2022/07/20 00:05:32;;;;;;;11.80;6.30;;;;;;;16.30;71.00;98383.30;105934;1276;22565;-76
2022/07/20 00:08:00;;;;;;;12.40;6.00;;;;;;;16.26;70.91;98384.42;105977;1277;22543;-77
2022/07/20 00:13:17;;;;;;;9.10;6.30;;;;;;;16.49;70.60;98379.88;106288;1275;22556;-78
2022/07/20 00:15:45;;;;;;;8.20;6.10;;;;;;;16.49;70.52;98378.85;106099;1275;22788;-77
2022/07/20 00:18:13;;;;;;;10.30;6.50;;;;;;;16.46;70.76;98376.39;106081;1278;25428;-77
2022/07/20 00:20:41;;;;;;;9.70;6.40;;;;;;;16.41;70.90;98371.58;105942;1274;22697;-77
2022/07/20 00:23:09;;;;;;;9.70;5.80;;;;;;;16.34;70.89;98372.48;106275;1275;24164;-76
2022/07/20 00:25:37;;;;;;;12.20;6.80;;;;;;;16.40;70.94;98372.04;105927;1278;25414;-76
2022/07/20 00:28:05;;;;;;;7.60;5.40;;;;;;;16.41;70.75;98374.95;105966;1277;24415;-77
2022/07/20 00:30:33;;;;;;;9.80;5.80;;;;;;;16.44;70.74;98374.73;106255;1278;22556;-77
2022/07/20 00:33:01;;;;;;;9.80;6.40;;;;;;;16.55;70.55;98375.92;106252;1277;22608;-77
2022/07/20 00:35:29;;;;;;;8.10;5.80;;;;;;;16.65;70.43;98374.21;106289;1275;24433;-77
2022/07/20 00:37:57;;;;;;;9.10;6.20;;;;;;;16.68;70.62;98375.45;106063;1277;22557;-76
2022/07/20 00:40:25;;;;;;;7.20;5.80;;;;;;;16.56;70.96;98373.16;105894;1277;22813;-77
2022/07/20 00:42:53;;;;;;;7.80;6.10;;;;;;;16.39;71.24;98373.64;106237;1274;22549;-78
2022/07/20 00:45:21;;;;;;;8.10;6.30;;;;;;;16.23;71.37;98378.70;106085;1277;22739;-78
2022/07/20 00:47:51;;;;;;;9.80;6.00;;;;;;;16.15;71.49;98375.56;106280;1277;25524;-78
2022/07/20 00:50:19;;;;;;;7.10;5.50;;;;;;;16.16;71.49;98376.45;106219;1277;24408;-78
2022/07/20 00:52:48;;;;;;;8.40;6.20;;;;;;;16.15;71.89;98375.63;106297;1277;22761;-78
2022/07/20 00:55:16;;;;;;;7.00;5.70;;;;;;;16.09;71.81;98374.68;106340;1277;22779;-78
2022/07/20 00:57:44;;;;;;;8.10;6.10;;;;;;;16.06;71.79;98374.80;106305;1277;22580;-78
2022/07/20 01:00:13;;;;;;;11.00;6.10;;;;;;;16.06;71.88;98376.95;106237;1277;26820;-77
2022/07/20 01:02:42;;;;;;;6.90;5.70;;;;;;;16.07;71.88;98376.24;106339;1275;22694;-77
2022/07/20 01:05:14;;;;;;;6.90;5.40;;;;;;;16.13;71.97;98377.96;106424;1278;23573;-76
2022/07/20 01:07:47;;;;;;;7.10;5.40;;;;;;;16.17;71.99;98377.17;106411;1278;22558;-78
2022/07/20 01:10:16;;;;;;;8.70;6.10;;;;;;;16.23;72.08;98375.77;106195;1278;22553;-76
2022/07/20 01:12:48;;;;;;;7.60;5.30;;;;;;;16.31;72.08;98376.38;106354;1277;22705;-78
2022/07/20 01:15:17;;;;;;;8.40;5.70;;;;;;;16.23;72.42;98375.72;106330;1277;23824;-77
2022/07/20 01:17:45;;;;;;;8.60;5.60;;;;;;;16.07;72.47;98370.18;106369;1277;24566;-78
2022/07/20 01:20:18;;;;;;;7.70;5.60;;;;;;;16.01;72.57;98380.58;106399;1274;22694;-78
2022/07/20 01:22:47;;;;;;;9.80;5.90;;;;;;;15.92;72.57;98378.92;106212;1275;24419;-77
2022/07/20 01:25:15;;;;;;;7.60;5.60;;;;;;;15.92;72.76;98376.05;106430;1274;22874;-80
2022/07/20 01:27:43;;;;;;;8.30;5.70;;;;;;;15.97;72.61;98381.32;106326;1277;22538;-77
2022/07/20 01:30:12;;;;;;;7.50;5.70;;;;;;;16.09;72.67;98384.02;106397;1274;22584;-76
2022/07/20 01:32:40;;;;;;;6.30;5.50;;;;;;;16.20;72.17;98383.84;106409;1274;23971;-76
2022/07/20 01:35:08;;;;;;;8.20;5.90;;;;;;;16.24;72.17;98384.91;106414;1274;22556;-77
2022/07/20 01:37:36;;;;;;;6.10;5.30;;;;;;;16.38;72.20;98387.55;106432;1274;22658;-78
2022/07/20 01:40:04;;;;;;;7.90;5.10;;;;;;;16.66;72.49;98383.65;106468;1274;22540;-77
2022/07/20 01:42:32;;;;;;;7.80;5.80;;;;;;;16.90;71.63;98380.63;106471;1274;22674;-77
2022/07/20 01:45:00;;;;;;;10.90;5.60;;;;;;;16.75;71.34;98384.42;106409;1274;24221;-77
2022/07/20 01:47:28;;;;;;;11.30;6.10;;;;;;;16.48;71.45;98381.84;106026;1274;22548;-77
2022/07/20 01:49:56;;;;;;;7.60;5.60;;;;;;;16.38;71.66;98377.29;105995;1274;22712;-78
2022/07/20 01:52:24;;;;;;;7.80;4.80;;;;;;;16.39;71.70;98380.38;106016;1274;22609;-77
2022/07/20 01:54:52;;;;;;;10.20;5.30;;;;;;;16.28;71.99;98379.39;106251;1274;209910;-77
2022/07/20 01:57:20;;;;;;;7.40;5.40;;;;;;;16.19;72.17;98381.79;106366;1274;22813;-77
2022/07/20 01:59:48;;;;;;;10.50;5.80;;;;;;;16.04;72.29;98378.36;106423;1274;22565;-77
2022/07/20 02:02:16;;;;;;;8.30;5.70;;;;;;;15.92;72.67;98377.67;106368;1273;23874;-77
2022/07/20 02:04:44;;;;;;;9.00;5.30;;;;;;;15.82;73.09;98378.48;106390;1274;22528;-76
2022/07/20 02:07:12;;;;;;;9.00;5.70;;;;;;;15.73;73.32;98376.33;105956;1277;22727;-78
2022/07/20 02:09:40;;;;;;;8.70;5.50;;;;;;;15.64;73.42;98376.92;106096;1274;22547;-77
2022/07/20 02:12:08;;;;;;;9.20;5.10;;;;;;;15.53;73.54;98380.45;106521;1274;22707;-77
2022/07/20 02:14:36;;;;;;;10.10;4.90;;;;;;;15.50;73.54;98378.05;106260;1274;22646;-78
2022/07/20 02:17:04;;;;;;;11.90;5.30;;;;;;;15.54;73.93;98374.42;106422;1274;22683;-78
2022/07/20 02:19:32;;;;;;;8.50;5.80;;;;;;;15.62;73.89;98375.80;106443;1274;23395;-77
2022/07/20 02:22:02;;;;;;;7.90;5.00;;;;;;;15.63;73.83;98377.80;106034;1274;25348;-78
2022/07/20 02:24:30;;;;;;;9.00;5.30;;;;;;;15.66;73.90;98381.20;106368;1274;22612;-76
2022/07/20 02:26:58;;;;;;;8.40;5.70;;;;;;;15.76;73.77;98380.95;106229;1274;22690;-77
2022/07/20 02:29:26;;;;;;;10.50;5.60;;;;;;;15.93;73.70;98378.52;106038;1273;25452;-76
2022/07/20 02:31:54;;;;;;;7.90;5.10;;;;;;;15.99;73.64;98380.94;106014;1274;22617;-76
2022/07/20 02:34:22;;;;;;;8.10;5.50;;;;;;;15.88;73.95;98373.18;106005;1274;23222;-76
2022/07/20 02:36:50;;;;;;;8.30;5.20;;;;;;;15.76;74.09;98370.80;105999;1274;25395;-78
2022/07/20 02:39:18;;;;;;;7.60;5.30;;;;;;;15.66;73.99;98366.11;106333;1274;25397;-78
2022/07/20 02:41:46;;;;;;;8.20;5.40;;;;;;;15.56;74.66;98366.30;106366;1274;22557;-77
2022/07/20 02:44:14;;;;;;;9.90;5.40;;;;;;;15.50;74.95;98366.71;106076;1274;25302;-77
2022/07/20 02:46:42;;;;;;;7.00;5.40;;;;;;;15.44;75.17;98361.79;106355;1274;24418;-77
2022/07/20 02:49:10;;;;;;;8.00;5.40;;;;;;;15.40;75.33;98364.73;106333;1274;22553;-76
2022/07/20 02:51:38;;;;;;;8.10;4.90;;;;;;;15.39;75.31;98365.72;105980;1274;25414;-77
2022/07/20 02:54:06;;;;;;;8.10;5.40;;;;;;;15.36;75.08;98365.88;106352;1274;22688;-78
2022/07/20 02:56:34;;;;;;;8.80;5.10;;;;;;;15.38;75.02;98369.30;106348;1273;24510;-77
2022/07/20 02:59:02;;;;;;;7.30;5.10;;;;;;;15.47;74.66;98372.77;106274;1274;23352;-77
2022/07/20 03:01:29;;;;;;;7.30;5.10;;;;;;;15.59;74.79;98375.28;106340;1274;24482;-77
2022/07/20 03:04:05;;;;;;;6.30;4.80;;;;;;;16.08;76.52;98377.07;106405;1274;22692;-78
2022/07/20 03:06:32;;;;;;;8.50;5.20;;;;;;;16.74;75.01;98377.86;106369;1274;24130;-78
2022/07/20 03:09:00;;;;;;;6.60;5.00;;;;;;;16.95;73.38;98377.61;106423;1274;22557;-78
2022/07/20 03:11:28;;;;;;;6.70;5.00;;;;;;;16.87;72.89;98380.19;106343;1273;25589;-78
2022/07/20 03:13:56;;;;;;;8.00;5.50;;;;;;;16.61;72.73;98384.85;106362;1274;22539;-77
2022/07/20 03:16:24;;;;;;;8.00;4.90;;;;;;;16.26;73.02;98385.13;106025;1274;25510;-77
2022/07/20 03:18:52;;;;;;;8.40;5.90;;;;;;;16.20;73.70;98384.69;105984;1274;25319;-77
2022/07/20 03:21:21;;;;;;;7.30;5.40;;;;;;;16.17;74.46;98363.15;105981;1273;26350;-79
2022/07/20 03:23:49;;;;;;;18.00;5.60;;;;;;;16.81;74.67;98384.11;106363;1274;24260;-78
2022/07/20 03:26:19;;;;;;;7.20;5.30;;;;;;;17.12;72.98;98386.44;106407;1273;22537;-77
2022/07/20 03:28:48;;;;;;;9.70;5.60;;;;;;;17.05;72.24;98387.80;106425;1274;24247;-76
2022/07/20 03:31:16;;;;;;;9.90;6.10;;;;;;;16.73;72.37;98388.46;106015;1273;23766;-77
2022/07/20 03:33:52;;;;;;;8.80;5.80;;;;;;;16.44;72.64;98390.77;106377;1274;22827;-76
2022/07/20 03:36:20;;;;;;;10.40;6.40;;;;;;;16.20;73.05;98392.41;106376;1273;25410;-77
2022/07/20 03:38:48;;;;;;;12.00;5.50;;;;;;;16.06;73.41;98395.48;106384;1273;22683;-77
2022/07/20 03:41:16;;;;;;;10.00;5.90;;;;;;;16.04;73.44;98392.50;106376;1274;22605;-77
2022/07/20 03:43:44;;;;;;;7.70;5.50;;;;;;;16.06;73.55;98392.73;106010;1274;22638;-77
2022/07/20 03:46:17;;;;;;;15.30;6.70;;;;;;;16.05;73.56;98395.60;106008;1274;23924;-77
2022/07/20 03:48:45;;;;;;;6.80;4.80;;;;;;;16.12;74.14;98395.39;106073;1273;25470;-77
2022/07/20 03:51:14;;;;;;;6.80;4.60;;;;;;;16.57;75.54;98396.52;106320;1274;25400;-77
2022/07/20 03:53:42;;;;;;;9.30;4.80;;;;;;;17.28;73.39;98394.46;106034;1274;23198;-77
2022/07/20 03:56:12;;;;;;;8.10;5.30;;;;;;;17.90;71.49;98388.90;106023;1274;25407;-77
2022/07/20 03:58:40;;;;;;;7.50;5.70;;;;;;;17.96;71.38;98390.58;105998;1273;25367;-77
2022/07/20 04:01:08;;;;;;;8.70;5.40;;;;;;;17.64;71.64;98394.33;106469;1273;22562;-78
2022/07/20 04:03:36;;;;;;;8.80;6.60;;;;;;;17.29;71.75;98393.88;106271;1274;25301;-78
2022/07/20 04:06:04;;;;;;;7.80;5.70;;;;;;;17.05;72.22;98392.71;106428;1273;25343;-78
2022/07/20 04:08:32;;;;;;;8.60;5.70;;;;;;;17.01;72.33;98391.55;106384;1274;22550;-77
2022/07/20 04:11:02;;;;;;;11.20;5.40;;;;;;;16.99;72.37;98395.91;106389;1273;22621;-76
2022/07/20 04:13:30;;;;;;;7.10;5.30;;;;;;;16.94;72.55;98399.67;106005;1274;22655;-76
2022/07/20 04:15:58;;;;;;;8.90;5.70;;;;;;;16.87;72.72;98403.60;105992;1273;22642;-76
2022/07/20 04:18:26;;;;;;;7.80;5.40;;;;;;;16.83;72.89;98405.51;105885;1275;22574;-77
2022/07/20 04:20:54;;;;;;;11.10;5.10;;;;;;;16.83;72.98;98403.56;105956;1274;22807;-77
2022/07/20 04:23:23;;;;;;;8.00;5.00;;;;;;;16.90;73.18;98403.64;105966;1273;25453;-76
2022/07/20 04:25:51;;;;;;;6.40;4.70;;;;;;;17.10;74.00;98400.23;105844;1274;23225;-76
2022/07/20 04:28:19;;;;;;;7.70;5.00;;;;;;;17.65;74.19;98400.52;105979;1273;25247;-78
2022/07/20 04:30:47;;;;;;;9.40;5.70;;;;;;;17.99;72.65;98402.73;106375;1273;24311;-78
2022/07/20 04:33:15;;;;;;;10.80;6.00;;;;;;;18.07;72.10;98404.95;106418;1273;25373;-79
2022/07/20 04:35:43;;;;;;;11.10;5.50;;;;;;;18.23;72.57;98402.84;106450;1273;25191;-77
2022/07/20 04:38:13;;;;;;;12.50;6.00;;;;;;;18.41;72.20;98404.89;106234;1273;22553;-76
2022/07/20 04:40:42;;;;;;;8.00;5.40;;;;;;;18.51;71.94;98411.01;106112;1273;24402;-77
2022/07/20 04:43:10;;;;;;;7.80;5.10;;;;;;;18.69;71.93;98410.32;106018;1274;22540;-76
2022/07/20 04:45:38;;;;;;;7.60;5.20;;;;;;;18.89;71.72;98414.30;105893;1274;22683;-77
2022/07/20 04:48:06;;;;;;;9.00;4.90;;;;;;;19.17;71.18;98413.38;106137;1273;24113;-76
2022/07/20 04:50:34;;;;;;;10.30;5.60;;;;;;;19.55;69.71;98410.62;105966;1273;25233;-76
2022/07/20 04:53:02;;;;;;;9.20;6.00;;;;;;;19.89;69.64;98411.57;106525;1273;22563;-77
2022/07/20 04:55:29;;;;;;;9.80;5.60;;;;;;;20.05;69.43;98409.66;106310;1274;25378;-78
2022/07/20 04:57:57;;;;;;;9.50;6.00;;;;;;;20.04;69.48;98414.54;106489;1274;25214;-78
2022/07/20 05:00:25;;;;;;;10.10;6.00;;;;;;;19.97;69.46;98416.69;106962;1274;24215;-76
2022/07/20 05:02:53;;;;;;;31.40;8.00;;;;;;;19.93;69.45;98423.48;106729;1274;22568;-77
2022/07/20 05:05:21;;;;;;;50.40;15.20;;;;;;;19.90;69.55;98429.48;106503;1274;22550;-77
2022/07/20 05:07:49;;;;;;;63.20;23.30;;;;;;;19.92;69.43;98427.27;106478;1274;22695;-76
2022/07/20 05:10:17;;;;;;;50.60;23.60;;;;;;;20.07;69.01;98428.09;106518;1273;22573;-77
2022/07/20 05:12:45;;;;;;;32.50;18.30;;;;;;;20.18;68.85;98433.00;106476;1274;25407;-77
2022/07/20 05:15:13;;;;;;;40.90;21.00;;;;;;;20.15;68.74;98437.39;106531;1274;24396;-77
2022/07/20 05:17:41;;;;;;;27.40;14.00;;;;;;;20.14;68.63;98440.77;106554;1274;26604;-76
2022/07/20 05:20:10;;;;;;;26.50;14.60;;;;;;;20.11;68.48;98442.90;106041;1274;22552;-76
2022/07/20 05:22:38;;;;;;;27.20;14.30;;;;;;;20.11;68.36;98442.72;106173;1274;24251;-78
2022/07/20 05:25:06;;;;;;;25.20;11.10;;;;;;;20.29;68.39;98443.23;106401;1275;22561;-78
2022/07/20 05:27:35;;;;;;;15.50;9.00;;;;;;;20.44;67.35;98437.91;106404;1274;22565;-79
2022/07/20 05:30:04;;;;;;;15.30;8.50;;;;;;;20.72;66.66;98437.81;106283;1274;22774;-79
2022/07/20 05:32:32;;;;;;;17.60;8.60;;;;;;;21.11;66.09;98438.77;106286;1274;24416;-78
2022/07/20 05:35:09;;;;;;;13.50;8.20;;;;;;;21.41;66.50;98434.55;106242;1274;25379;-78
2022/07/20 05:37:37;;;;;;;13.30;8.50;;;;;;;21.50;66.10;98433.34;106120;1276;22718;-78
2022/07/20 05:40:05;;;;;;;11.40;7.50;;;;;;;21.54;65.98;98433.20;106264;1274;22612;-79
2022/07/20 05:42:37;;;;;;;12.00;8.40;;;;;;;21.57;65.96;98434.05;106048;1275;22610;-77
2022/07/20 05:45:05;;;;;;;14.30;8.80;;;;;;;21.58;65.75;98439.61;106301;1274;22704;-79
2022/07/20 05:47:33;;;;;;;12.30;7.20;;;;;;;21.59;65.63;98436.29;106130;1276;25442;-79
2022/07/20 05:50:02;;;;;;;12.70;7.70;;;;;;;21.73;64.44;98438.06;106283;1274;22566;-79
2022/07/20 05:52:30;;;;;;;16.20;7.90;;;;;;;21.99;64.05;98438.67;106127;1274;22694;-79
2022/07/20 05:54:58;;;;;;;14.00;8.30;;;;;;;22.17;63.76;98440.08;106040;1276;24259;-78
2022/07/20 05:57:26;;;;;;;17.30;9.70;;;;;;;22.28;63.44;98437.01;106046;1274;22592;-78
2022/07/20 05:59:54;;;;;;;16.80;9.10;;;;;;;22.39;63.54;98435.41;105956;1274;25480;-78
2022/07/20 06:02:22;;;;;;;14.50;9.70;;;;;;;22.48;63.02;98438.80;106039;1274;24382;-79
2022/07/20 06:04:50;;;;;;;21.70;9.60;;;;;;;22.56;62.85;98438.08;106228;1274;22622;-78
2022/07/20 06:07:18;;;;;;;18.00;9.00;;;;;;;22.64;62.61;98441.43;106142;1275;22608;-78
2022/07/20 06:09:46;;;;;;;17.10;8.50;;;;;;;22.71;62.41;98438.56;105916;1275;22758;-76
2022/07/20 06:12:14;;;;;;;19.90;10.30;;;;;;;22.79;62.20;98440.20;105862;1275;22725;-81
2022/07/20 06:14:42;;;;;;;23.30;11.00;;;;;;;22.89;61.53;98443.04;105867;1275;22653;-86
2022/07/20 06:17:11;;;;;;;26.50;10.40;;;;;;;22.97;61.41;98448.64;106171;1275;22565;-84
2022/07/20 06:19:39;;;;;;;33.70;12.10;;;;;;;23.05;61.14;98451.80;106771;1273;25348;-84
2022/07/20 06:22:07;;;;;;;32.50;11.90;;;;;;;23.14;60.99;98452.27;107221;1273;24030;-84
2022/07/20 06:24:35;;;;;;;35.70;11.40;;;;;;;23.23;60.66;98455.80;105943;1273;24327;-84
2022/07/20 06:27:10;;;;;;;36.30;12.10;;;;;;;23.33;60.40;98456.95;106035;1273;24078;-84
2022/07/20 06:29:38;;;;;;;46.70;11.70;;;;;;;23.38;59.30;98459.23;106037;1274;22691;-84
2022/07/20 06:32:06;;;;;;;19.70;8.60;;;;;;;23.40;58.67;98459.42;105864;1274;22651;-84
2022/07/20 06:34:45;;;;;;;21.80;9.20;;;;;;;23.44;59.05;98461.38;106013;1273;22691;-83
2022/07/20 06:37:13;;;;;;;24.10;9.00;;;;;;;23.49;59.00;98465.60;105968;1274;24883;-85
2022/07/20 06:39:41;;;;;;;20.50;9.70;;;;;;;23.57;58.78;98463.77;105938;1274;22524;-83
2022/07/20 06:42:16;;;;;;;16.60;10.40;;;;;;;23.64;58.13;98462.83;105982;1273;22547;-83
2022/07/20 06:44:44;;;;;;;16.20;11.00;;;;;;;23.70;58.13;98463.96;106018;1274;22733;-84
2022/07/20 06:47:13;;;;;;;21.40;11.00;;;;;;;23.78;57.73;98469.66;105990;1274;22695;-84
2022/07/20 06:49:41;;;;;;;19.80;10.20;;;;;;;23.90;57.22;98464.16;106033;1274;22577;-87
2022/07/20 06:52:09;;;;;;;16.70;10.40;;;;;;;23.99;56.74;98463.64;106179;1273;25414;-84
2022/07/20 06:54:37;;;;;;;16.40;9.50;;;;;;;24.11;56.78;98465.90;105970;1273;25448;-83
2022/07/20 06:57:05;;;;;;;17.30;9.30;;;;;;;24.22;56.08;98464.33;106038;1273;22631;-84
2022/07/20 06:59:33;;;;;;;15.80;7.90;;;;;;;24.28;55.08;98466.34;106003;1274;24419;-84
2022/07/20 07:02:01;;;;;;;11.30;6.60;;;;;;;24.35;55.37;98463.27;105971;1273;23047;-85
2022/07/20 07:04:29;;;;;;;18.60;7.80;;;;;;;24.46;55.25;98463.49;105920;1271;23313;-84
2022/07/20 07:06:58;;;;;;;14.70;7.30;;;;;;;24.59;55.03;98463.48;105952;1273;22614;-84
2022/07/20 07:09:26;;;;;;;13.90;7.30;;;;;;;24.74;54.97;98457.42;105995;1274;22684;-84
2022/07/20 07:11:56;;;;;;;14.30;8.40;;;;;;;24.88;54.78;98458.09;105981;1273;25254;-84
2022/07/20 07:14:25;;;;;;;13.00;8.00;;;;;;;25.03;54.41;98461.92;105975;1273;22866;-84
2022/07/20 07:16:54;;;;;;;14.70;8.40;;;;;;;25.15;53.32;98457.38;105903;1274;25325;-84
2022/07/20 07:19:22;;;;;;;25.40;9.80;;;;;;;25.31;53.76;98453.27;105892;1273;22538;-84
2022/07/20 07:21:50;;;;;;;23.80;7.80;;;;;;;25.45;52.39;98455.09;106136;1273;25313;-84
2022/07/20 07:24:18;;;;;;;24.10;8.50;;;;;;;25.56;52.58;98454.60;106039;1273;22519;-84
2022/07/20 07:26:46;;;;;;;26.10;8.80;;;;;;;25.69;52.41;98455.79;105827;1276;25318;-84
2022/07/20 07:29:19;;;;;;;26.70;9.90;;;;;;;25.85;52.31;98456.44;106035;1273;22649;-84
2022/07/20 07:31:47;;;;;;;22.70;7.90;;;;;;;25.99;51.90;98452.81;106159;1273;22604;-84
2022/07/20 07:34:15;;;;;;;14.60;6.60;;;;;;;26.14;51.64;98449.79;106199;1271;25405;-84
2022/07/20 07:36:43;;;;;;;18.70;7.00;;;;;;;26.27;50.10;98451.64;106124;1273;24343;-84
2022/07/20 07:39:13;;;;;;;15.30;6.50;;;;;;;26.34;48.54;98452.62;106095;1274;24360;-87
2022/07/20 07:41:41;;;;;;;14.20;6.80;;;;;;;26.43;48.72;98450.98;106211;1273;22778;-84
2022/07/20 07:44:09;;;;;;;11.60;7.10;;;;;;;26.58;49.63;98456.16;106306;1273;23935;-83
2022/07/20 07:46:37;;;;;;;15.60;7.70;;;;;;;26.76;49.52;98457.46;107908;1273;22661;-82
2022/07/20 07:49:05;;;;;;;10.60;6.40;;;;;;;26.93;48.96;98462.61;108937;1271;22534;-85
2022/07/20 07:51:33;;;;;;;14.90;7.10;;;;;;;27.02;47.20;98459.85;106663;1273;22655;-86
2022/07/20 07:54:01;;;;;;;12.40;6.30;;;;;;;27.11;47.39;98461.92;106096;1274;24475;-86
2022/07/20 07:56:29;;;;;;;16.90;6.10;;;;;;;27.21;47.36;98461.38;106226;1273;24246;-85
2022/07/20 07:58:57;;;;;;;33.80;6.90;;;;;;;27.32;47.68;98461.21;106400;1273;22665;-83
2022/07/20 08:01:45;;;;;;;14.90;6.30;;;;;;;27.48;47.30;98454.88;106229;1274;22691;-83
2022/07/20 08:04:14;;;;;;;14.70;6.20;;;;;;;27.59;46.79;98457.14;107024;1273;24189;-83
2022/07/20 08:06:42;;;;;;;13.90;7.30;;;;;;;27.68;46.06;98459.48;106914;1274;22778;-84
2022/07/20 08:09:10;;;;;;;15.20;7.30;;;;;;;27.75;44.72;98459.09;106722;1274;23201;-83
2022/07/20 08:11:38;;;;;;;11.20;6.10;;;;;;;27.82;44.17;98459.40;106913;1273;22711;-83
2022/07/20 08:14:06;;;;;;;11.10;5.90;;;;;;;27.82;44.08;98457.34;106828;1274;24100;-85
2022/07/20 08:16:34;;;;;;;17.00;6.10;;;;;;;27.91;45.07;98462.94;106167;1274;23358;-85
2022/07/20 08:19:02;;;;;;;11.20;5.50;;;;;;;28.03;44.62;98458.52;106812;1274;24685;-84
2022/07/20 08:21:30;;;;;;;10.00;5.50;;;;;;;28.16;44.49;98460.70;106811;1274;23975;-83
2022/07/20 08:24:04;;;;;;;10.40;5.60;;;;;;;28.31;43.56;98458.89;106833;1274;24463;-84
2022/07/20 08:26:32;;;;;;;11.30;5.70;;;;;;;28.34;42.53;98455.55;106869;1274;23336;-84
2022/07/20 08:29:00;;;;;;;18.80;6.00;;;;;;;28.42;43.15;98456.79;106792;1274;25351;-84
2022/07/20 08:31:35;;;;;;;8.60;6.10;;;;;;;28.54;42.55;98455.77;106826;1275;22546;-83
2022/07/20 08:34:03;;;;;;;20.60;6.90;;;;;;;28.61;40.79;98459.77;106648;1276;23325;-83
2022/07/20 08:36:31;;;;;;;10.70;6.10;;;;;;;28.62;40.59;98454.05;106752;1276;23286;-85
2022/07/20 08:38:59;;;;;;;15.40;7.70;;;;;;;28.64;40.71;98456.34;106817;1277;22638;-85
2022/07/20 08:41:27;;;;;;;11.30;6.40;;;;;;;28.72;40.75;98454.08;106813;1276;24367;-84
2022/07/20 08:43:56;;;;;;;11.10;6.30;;;;;;;28.84;40.28;98451.30;106918;1276;22753;-83
2022/07/20 08:46:25;;;;;;;15.10;8.00;;;;;;;28.95;40.55;98453.43;106877;1276;24294;-84
2022/07/20 08:48:53;;;;;;;11.20;8.00;;;;;;;29.06;40.63;98451.61;106933;1275;23410;-82
2022/07/20 08:51:21;;;;;;;18.30;9.10;;;;;;;29.16;39.53;98457.64;106775;1276;23978;-83
2022/07/20 08:53:50;;;;;;;10.30;6.50;;;;;;;29.19;39.35;98455.48;106796;1276;22566;-84
2022/07/20 08:56:18;;;;;;;10.80;6.90;;;;;;;29.24;38.68;98449.89;106904;1276;22693;-84
2022/07/20 08:58:46;;;;;;;11.00;6.50;;;;;;;29.32;39.59;98452.42;106588;1276;22535;-83
2022/07/20 09:01:19;;;;;;;10.80;6.20;;;;;;;29.49;39.15;98447.73;106801;1275;25316;-82
2022/07/20 09:04:08;;;;;;;10.00;6.00;;;;;;;29.50;38.71;98449.24;106782;1276;25305;-83
2022/07/20 09:06:49;;;;;;;12.70;5.20;;;;;;;29.49;38.37;98448.78;106799;1276;26617;-85
2022/07/20 09:09:19;;;;;;;10.50;5.80;;;;;;;29.57;39.11;98445.52;106821;1276;22784;-83
2022/07/20 09:11:47;;;;;;;9.20;5.00;;;;;;;29.70;38.88;98441.12;106862;1276;22570;-83
2022/07/20 09:14:40;;;;;;;11.30;5.90;;;;;;;29.89;39.21;98439.48;106951;1276;22560;-82
2022/07/20 09:17:20;;;;;;;8.20;4.50;;;;;;;30.03;37.97;98441.93;106912;1276;25659;-83
2022/07/20 09:20:00;;;;;;;9.90;4.70;;;;;;;30.11;38.42;98441.74;106605;1276;23284;-84
2022/07/20 09:22:36;;;;;;;9.10;4.60;;;;;;;30.29;38.78;98436.69;106959;1276;23330;-83
2022/07/20 09:25:11;;;;;;;8.50;4.30;;;;;;;30.50;37.52;98439.10;106934;1277;22568;-84
2022/07/20 09:27:40;;;;;;;6.20;4.40;;;;;;;30.54;36.64;98437.52;106801;1276;23965;-84
2022/07/20 09:30:14;;;;;;;8.10;4.30;;;;;;;30.61;36.18;98438.08;106762;1276;22647;-83
2022/07/20 09:32:56;;;;;;;8.50;4.70;;;;;;;30.65;36.19;98438.09;106750;1276;24192;-82
2022/07/20 09:35:35;;;;;;;10.50;4.80;;;;;;;30.75;36.79;98431.42;106766;1276;22590;-84
2022/07/20 09:38:06;;;;;;;6.70;4.60;;;;;;;30.89;36.33;98432.65;106903;1276;25408;-84
2022/07/20 09:40:43;;;;;;;9.50;5.00;;;;;;;30.98;36.23;98432.42;106931;1276;25310;-83
2022/07/20 09:43:36;;;;;;;8.10;4.30;;;;;;;31.08;34.64;98429.55;106787;1276;22646;-83
2022/07/20 09:46:13;;;;;;;9.30;4.40;;;;;;;31.15;35.89;98427.45;106811;1276;23002;-84
2022/07/20 09:48:50;;;;;;;6.80;4.40;;;;;;;31.25;35.50;98424.79;106704;1277;25472;-84
2022/07/20 09:51:32;;;;;;;8.50;4.30;;;;;;;31.40;35.39;98426.64;106758;1276;22561;-84
2022/07/20 09:54:06;;;;;;;8.90;4.40;;;;;;;31.59;35.73;98430.51;106855;1276;22573;-83
2022/07/20 09:56:37;;;;;;;9.40;4.40;;;;;;;31.79;34.78;98427.16;106852;1276;23450;-84
2022/07/20 09:59:08;;;;;;;8.90;4.60;;;;;;;31.72;33.76;98422.70;107085;1276;22573;-84
2022/07/20 10:01:39;;;;;;;7.80;4.50;;;;;;;31.74;34.22;98421.63;106715;1276;22697;-84
2022/07/20 10:04:10;;;;;;;9.30;4.60;;;;;;;31.74;32.33;98424.00;107034;1275;22682;-84
2022/07/20 10:06:40;;;;;;;11.60;4.30;;;;;;;31.50;31.52;98426.30;106977;1276;22646;-84
2022/07/20 10:09:14;;;;;;;7.20;4.20;;;;;;;31.38;32.37;98421.96;106342;1276;22648;-86
2022/07/20 10:11:48;;;;;;;7.60;4.60;;;;;;;31.46;32.94;98415.30;106435;1276;24222;-86
2022/07/20 10:14:21;;;;;;;7.60;4.40;;;;;;;31.63;32.90;98413.14;106361;1276;24279;-84
2022/07/20 10:16:51;;;;;;;9.30;4.00;;;;;;;31.89;33.26;98409.29;106342;1276;23755;-86
2022/07/20 10:19:39;;;;;;;9.80;4.20;;;;;;;32.17;33.14;98411.34;106580;1276;25291;-84
2022/07/20 10:22:09;;;;;;;8.80;3.90;;;;;;;32.39;33.09;98414.61;106513;1276;22562;-84
2022/07/20 10:24:44;;;;;;;5.70;3.90;;;;;;;32.47;32.66;98415.57;106274;1276;22623;-85
2022/07/20 10:28:28;;;;;;;7.80;3.40;;;;;;;32.67;32.96;98415.65;106373;1276;25436;-85
2022/07/20 10:31:53;;;;;;;5.60;4.00;;;;;;;32.84;31.86;98412.45;106495;1276;22702;-84
2022/07/20 10:34:46;;;;;;;9.00;3.80;;;;;;;32.82;31.68;98409.17;106359;1276;22563;-87
2022/07/20 10:37:36;;;;;;;8.00;4.30;;;;;;;32.90;31.84;98411.19;106351;1275;25632;-86
2022/07/20 10:40:06;;;;;;;8.80;4.50;;;;;;;33.01;31.94;98410.77;106452;1276;22726;-87
2022/07/20 10:42:41;;;;;;;8.90;4.20;;;;;;;33.09;31.34;98410.98;106474;1274;22885;-87
2022/07/20 10:45:19;;;;;;;6.60;3.80;;;;;;;33.11;31.18;98412.07;106419;1276;22688;-89
2022/07/20 10:47:55;;;;;;;11.60;3.90;;;;;;;33.15;31.61;98411.39;106280;1276;22554;-85
2022/07/20 10:50:32;;;;;;;10.50;4.60;;;;;;;33.25;30.19;98408.10;106411;1275;22616;-87
2022/07/20 10:53:15;;;;;;;6.90;4.00;;;;;;;33.34;31.22;98407.78;106523;1275;25318;-86
2022/07/20 10:55:46;;;;;;;6.70;3.90;;;;;;;33.41;29.93;98399.94;106468;1276;24728;-86
2022/07/20 10:58:32;;;;;;;7.30;4.30;;;;;;;33.29;30.27;98398.11;106413;1275;24362;-87
2022/07/20 11:01:06;;;;;;;6.60;4.10;;;;;;;33.39;30.50;98399.73;106378;1275;22881;-85
2022/07/20 11:03:48;;;;;;;6.30;4.40;;;;;;;33.43;29.88;98394.59;106510;1274;24286;-86
2022/07/20 11:06:23;;;;;;;11.50;4.10;;;;;;;33.54;30.71;98390.19;107224;1274;22755;-86
2022/07/20 11:08:58;;;;;;;7.90;4.10;;;;;;;33.69;30.34;98387.77;107071;1276;25409;-87
2022/07/20 11:11:31;;;;;;;8.60;4.30;;;;;;;33.86;30.69;98383.93;106630;1274;22697;-86
2022/07/20 11:14:39;;;;;;;9.00;4.10;;;;;;;34.04;29.82;98385.90;106786;1276;22702;-86
2022/07/20 11:18:27;;;;;;;6.10;3.70;;;;;;;34.00;30.22;98384.88;106595;1275;25412;-86
2022/07/20 11:21:26;;;;;;;7.00;4.00;;;;;;;34.16;29.99;98380.20;106207;1279;25317;-85
2022/07/20 11:24:03;;;;;;;9.90;4.60;;;;;;;34.24;29.77;98380.12;106079;1281;25363;-86
2022/07/20 11:26:31;;;;;;;10.70;4.30;;;;;;;34.25;29.31;98380.88;106166;1281;23111;-86
2022/07/20 11:28:59;;;;;;;10.40;4.60;;;;;;;34.07;29.04;98381.19;106120;1281;22698;-86
2022/07/20 11:31:29;;;;;;;11.90;4.50;;;;;;;33.91;28.50;98377.55;106322;1281;24119;-84
2022/07/20 11:33:59;;;;;;;9.80;4.50;;;;;;;33.76;28.88;98379.66;106305;1281;22545;-85
2022/07/20 11:36:29;;;;;;;8.20;4.70;;;;;;;33.88;29.67;98376.69;106362;1281;22713;-84
2022/07/20 11:39:07;;;;;;;10.30;4.40;;;;;;;34.14;29.84;98376.41;106044;1281;22566;-85
2022/07/20 11:41:43;;;;;;;9.90;4.50;;;;;;;34.39;29.81;98375.02;106245;1281;25583;-86